Time;durP1;ratioP1;P1;durP2;ratioP2;P2;SDS_P1;SDS_P2;PMS_P1;PMS_P2;Temp;Humidity;BMP_temperature;BMP_pressure;BME280_temperature;BME280_humidity;BME280_pressure;Samples;Min_cycle;Max_cycle;Signal;HPM_P1;HPM_P2
2022/04/25 00:00:55;;;;;;;;;;;13.40;99.90;;;;;;5074863;28;20382;-89
2022/04/25 00:03:21;;;;;;;;;;;13.40;99.90;;;;;;5059735;28;19935;-89
2022/04/25 00:05:47;;;;;;;;;;;13.30;99.90;;;;;;5057337;28;19920;-89
2022/04/25 00:08:12;;;;;;;;;;;13.30;99.90;;;;;;5076892;28;20329;-89
2022/04/25 00:10:38;;;;;;;;;;;13.30;99.90;;;;;;5062534;28;19970;-89
2022/04/25 00:13:03;;;;;;;;;;;13.40;99.90;;;;;;5073766;28;20577;-88
2022/04/25 00:15:29;;;;;;;;;;;13.30;99.90;;;;;;5056886;28;19909;-89
2022/04/25 00:17:55;;;;;;;;;;;13.40;99.90;;;;;;5058843;28;19928;-89
2022/04/25 00:20:20;;;;;;;;;;;13.40;99.90;;;;;;5074602;28;19959;-89
2022/04/25 00:22:48;;;;;;;;;;;13.40;99.90;;;;;;5058425;28;22535;-92
2022/04/25 00:25:16;;;;;;;;;;;13.40;99.90;;;;;;5075450;28;19927;-89
2022/04/25 00:27:42;;;;;;;;;;;13.40;99.90;;;;;;5073576;28;19920;-88
2022/04/25 00:30:08;;;;;;;;;;;13.40;99.90;;;;;;5073466;28;19912;-89
2022/04/25 00:32:33;;;;;;;;;;;13.40;99.90;;;;;;5073868;28;19909;-89
2022/04/25 00:34:59;;;;;;;;;;;13.40;99.90;;;;;;5072933;28;19954;-89
2022/04/25 00:37:24;;;;;;;;;;;13.40;99.90;;;;;;5072665;28;20053;-89
2022/04/25 00:39:50;;;;;;;;;;;13.30;99.90;;;;;;5073680;28;19916;-88
2022/04/25 00:42:15;;;;;;;;;;;13.40;99.90;;;;;;5078408;28;19916;-90
2022/04/25 00:44:41;;;;;;;;;;;13.30;99.90;;;;;;5079095;28;20353;-89
2022/04/25 00:47:08;;;;;;;;;;;13.30;99.90;;;;;;5059658;28;19938;-88
2022/04/25 00:49:34;;;;;;;;;;;13.30;99.90;;;;;;5077422;28;19931;-88
2022/04/25 00:51:59;;;;;;;;;;;13.30;99.90;;;;;;5077814;28;20384;-89
2022/04/25 00:54:25;;;;;;;;;;;13.30;99.90;;;;;;5078907;28;19909;-89
2022/04/25 00:56:50;;;;;;;;;;;13.30;99.90;;;;;;5078157;28;19920;-90
2022/04/25 00:59:17;;;;;;;;;;;13.30;99.90;;;;;;5077811;28;19944;-88
2022/04/25 01:01:43;;;;;;;;;;;13.30;99.90;;;;;;5076695;28;19931;-88
2022/04/25 01:04:09;;;;;;;;;;;13.30;99.90;;;;;;5076919;28;20004;-89
2022/04/25 01:06:35;;;;;;;;;;;13.30;99.90;;;;;;5060125;28;19976;-92
2022/04/25 01:09:00;;;;;;;;;;;13.40;99.90;;;;;;5078045;28;19952;-88
2022/04/25 01:11:30;;;;;;;;;;;13.40;99.90;;;;;;5080449;28;20011;-89
2022/04/25 01:13:56;;;;;;;;;;;13.40;99.90;;;;;;5062393;28;20450;-89
2022/04/25 01:16:22;;;;;;;;;;;13.40;99.90;;;;;;5060348;28;19955;-89
2022/04/25 01:18:47;;;;;;;;;;;13.40;99.90;;;;;;5060765;28;20003;-90
2022/04/25 01:21:14;;;;;;;;;;;13.40;99.90;;;;;;5078406;28;19909;-89
2022/04/25 01:29:08;;;;;;;;;;;13.40;99.90;;;;;;5076564;28;19954;-90
2022/04/25 01:31:34;;;;;;;;;;;13.40;99.90;;;;;;5061366;28;19980;-91
2022/04/25 01:33:59;;;;;;;;;;;13.40;99.90;;;;;;5059560;28;19947;-89
2022/04/25 01:36:25;;;;;;;;;;;13.40;99.90;;;;;;5077840;28;19917;-89
2022/04/25 01:38:54;;;;;;;;;;;13.30;99.90;;;;;;5078923;28;19963;-91
2022/04/25 01:41:19;;;;;;;;;;;13.30;99.90;;;;;;5078557;28;19916;-89
2022/04/25 01:43:45;;;;;;;;;;;13.30;99.90;;;;;;5076952;28;19909;-89
2022/04/25 01:46:12;;;;;;;;;;;13.30;99.90;;;;;;5078859;28;19908;-90
2022/04/25 01:48:38;;;;;;;;;;;13.40;99.90;;;;;;5076067;28;19916;-88
2022/04/25 01:51:04;;;;;;;;;;;13.40;99.90;;;;;;5075701;28;19915;-91
2022/04/25 01:53:30;;;;;;;;;;;13.40;99.90;;;;;;5079020;28;19910;-89
2022/04/25 01:55:55;;;;;;;;;;;13.40;99.90;;;;;;5077947;28;20383;-89
2022/04/25 01:58:21;;;;;;;;;;;13.40;99.90;;;;;;5059581;28;19909;-90
2022/04/25 02:00:48;;;;;;;;;;;13.40;99.90;;;;;;5080710;28;19935;-88
2022/04/25 02:03:13;;;;;;;;;;;13.30;99.90;;;;;;5082881;28;20357;-89
2022/04/25 02:05:39;;;;;;;;;;;13.30;99.90;;;;;;5081006;28;19966;-89
2022/04/25 02:08:05;;;;;;;;;;;13.20;99.90;;;;;;5076035;28;20383;-89
2022/04/25 02:10:31;;;;;;;;;;;13.20;99.90;;;;;;5076049;28;19999;-95
2022/04/25 02:12:56;;;;;;;;;;;13.20;99.90;;;;;;5058549;28;19972;-88
2022/04/25 02:15:22;;;;;;;;;;;13.20;99.90;;;;;;5074775;28;19908;-89
2022/04/25 02:17:47;;;;;;;;;;;13.30;99.90;;;;;;5075734;28;19923;-89
2022/04/25 02:20:13;;;;;;;;;;;13.30;99.90;;;;;;5075101;28;20418;-91
2022/04/25 02:22:39;;;;;;;;;;;13.30;99.90;;;;;;5077484;28;19909;-90
2022/04/25 02:25:05;;;;;;;;;;;13.40;99.90;;;;;;5062191;28;20392;-88
2022/04/25 02:27:30;;;;;;;;;;;13.40;99.90;;;;;;5057134;28;20008;-88
2022/04/25 02:29:59;;;;;;;;;;;13.30;99.90;;;;;;5060074;28;19944;-89
2022/04/25 02:32:27;;;;;;;;;;;13.30;99.90;;;;;;5060990;28;19893;-90
2022/04/25 02:34:54;;;;;;;;;;;13.40;99.90;;;;;;5023509;28;19909;-89
2022/04/25 02:37:23;;;;;;;;;;;13.30;99.90;;;;;;5055373;28;19928;-92
2022/04/25 02:39:50;;;;;;;;;;;13.20;99.90;;;;;;5056319;28;19917;-96
2022/04/25 02:42:16;;;;;;;;;;;13.30;99.90;;;;;;5056926;28;19943;-89
2022/04/25 02:44:41;;;;;;;;;;;13.20;99.90;;;;;;5057111;28;19909;-88
2022/04/25 02:47:08;;;;;;;;;;;13.20;99.90;;;;;;5056716;28;20263;-88
2022/04/25 02:49:34;;;;;;;;;;;13.30;99.90;;;;;;5039310;28;20365;-89
2022/04/25 02:51:59;;;;;;;;;;;13.20;99.90;;;;;;5057335;28;19920;-92
2022/04/25 02:54:25;;;;;;;;;;;13.30;99.90;;;;;;5038406;28;19908;-88
2022/04/25 02:56:50;;;;;;;;;;;13.30;99.90;;;;;;5039673;28;19924;-89
2022/04/25 02:59:16;;;;;;;;;;;13.20;99.90;;;;;;5040318;28;19909;-88
2022/04/25 03:01:42;;;;;;;;;;;13.30;99.90;;;;;;5057850;28;20431;-94
2022/04/25 03:04:07;;;;;;;;;;;13.20;99.90;;;;;;5056613;28;19909;-93
2022/04/25 03:06:33;;;;;;;;;;;13.20;99.90;;;;;;5059420;28;19909;-88
2022/04/25 03:08:59;;;;;;;;;;;13.20;99.90;;;;;;5055245;28;19994;-89
2022/04/25 03:11:25;;;;;;;;;;;13.30;99.90;;;;;;5057399;28;19913;-88
2022/04/25 03:13:52;;;;;;;;;;;13.30;99.90;;;;;;5059010;28;20403;-87
2022/04/25 03:16:19;;;;;;;;;;;13.30;99.90;;;;;;5056431;28;19920;-92
2022/04/25 03:18:44;;;;;;;;;;;13.30;99.90;;;;;;5053194;28;19909;-90
2022/04/25 03:21:10;;;;;;;;;;;13.20;99.90;;;;;;5052146;28;19912;-89
2022/04/25 03:23:36;;;;;;;;;;;13.20;99.90;;;;;;5053090;28;19999;-88
2022/04/25 03:26:01;;;;;;;;;;;13.30;99.90;;;;;;5054426;28;19935;-90
2022/04/25 03:28:27;;;;;;;;;;;13.20;99.90;;;;;;5072541;28;19909;-94
2022/04/25 03:30:52;;;;;;;;;;;13.20;99.90;;;;;;5054789;28;20024;-89
2022/04/25 03:33:19;;;;;;;;;;;13.20;99.90;;;;;;5072101;28;19908;-89
2022/04/25 03:35:46;;;;;;;;;;;13.20;99.90;;;;;;5072044;28;20364;-95
2022/04/25 03:38:12;;;;;;;;;;;13.20;99.90;;;;;;5072730;28;19912;-94
2022/04/25 03:40:38;;;;;;;;;;;13.20;99.90;;;;;;5072538;28;19958;-88
2022/04/25 03:43:06;;;;;;;;;;;13.30;99.90;;;;;;5054347;28;19908;-95
2022/04/25 03:45:32;;;;;;;;;;;13.30;99.90;;;;;;5072962;28;19943;-89
2022/04/25 03:47:58;;;;;;;;;;;13.30;99.90;;;;;;5072142;28;19909;-90
2022/04/25 03:50:24;;;;;;;;;;;13.20;99.90;;;;;;5071970;28;19913;-92
2022/04/25 03:52:49;;;;;;;;;;;13.20;99.90;;;;;;5054631;28;19908;-89
2022/04/25 03:58:01;;;;;;;;;;;13.20;99.90;;;;;;5073720;28;19924;-94
2022/04/25 04:00:27;;;;;;;;;;;13.20;99.90;;;;;;5072580;28;20514;-89
2022/04/25 04:02:52;;;;;;;;;;;13.20;99.90;;;;;;5071789;28;19909;-89
2022/04/25 04:05:18;;;;;;;;;;;13.20;99.90;;;;;;5054282;28;19908;-93
2022/04/25 04:07:44;;;;;;;;;;;13.20;99.90;;;;;;5071855;28;20448;-88
2022/04/25 04:10:10;;;;;;;;;;;13.20;99.90;;;;;;5071611;28;19917;-90
2022/04/25 04:12:36;;;;;;;;;;;13.20;99.90;;;;;;5072016;28;19908;-88
2022/04/25 04:15:03;;;;;;;;;;;13.20;99.90;;;;;;5070397;28;19916;-89
2022/04/25 04:17:29;;;;;;;;;;;13.20;99.90;;;;;;5071298;28;20000;-89
2022/04/25 04:19:54;;;;;;;;;;;13.20;99.90;;;;;;5070692;28;19909;-89
2022/04/25 04:22:21;;;;;;;;;;;13.20;99.90;;;;;;5071168;28;20383;-90
2022/04/25 04:24:46;;;;;;;;;;;13.20;99.90;;;;;;5070830;28;19924;-94
2022/04/25 04:27:14;;;;;;;;;;;13.10;99.90;;;;;;5053548;28;20277;-95
2022/04/25 04:29:40;;;;;;;;;;;13.10;99.90;;;;;;5072817;28;19908;-88
2022/04/25 04:32:05;;;;;;;;;;;13.10;99.90;;;;;;5072286;28;19920;-91
2022/04/25 04:34:31;;;;;;;;;;;13.10;99.90;;;;;;5053462;28;19912;-88
2022/04/25 04:36:57;;;;;;;;;;;13.10;99.90;;;;;;5071122;28;19916;-94
2022/04/25 04:39:22;;;;;;;;;;;13.10;99.90;;;;;;5053121;28;19966;-89
2022/04/25 04:41:48;;;;;;;;;;;13.10;99.90;;;;;;5071954;28;19916;-88
2022/04/25 04:44:14;;;;;;;;;;;13.10;99.90;;;;;;5053373;28;20300;-88
2022/04/25 04:46:39;;;;;;;;;;;13.10;99.90;;;;;;5071856;28;19919;-95
2022/04/25 04:49:05;;;;;;;;;;;13.10;99.90;;;;;;5072253;28;19909;-89
2022/04/25 04:51:31;;;;;;;;;;;13.10;99.90;;;;;;5072949;28;20440;-96
2022/04/25 04:53:59;;;;;;;;;;;13.10;99.90;;;;;;5073286;28;19931;-95
2022/04/25 04:56:26;;;;;;;;;;;13.20;99.90;;;;;;5067804;28;20312;-88
2022/04/25 04:58:52;;;;;;;;;;;13.10;99.90;;;;;;5065483;28;19944;-89
2022/04/25 05:01:18;;;;;;;;;;;13.10;99.90;;;;;;5054941;28;20492;-89
2022/04/25 05:03:44;;;;;;;;;;;13.10;99.90;;;;;;5071982;28;19908;-95
2022/04/25 05:06:10;;;;;;;;;;;13.10;99.90;;;;;;5072042;28;19915;-91
2022/04/25 05:08:36;;;;;;;;;;;13.10;99.90;;;;;;5076302;28;19956;-89
2022/04/25 05:11:02;;;;;;;;;;;13.10;99.90;;;;;;5056401;28;19908;-88
2022/04/25 05:13:28;;;;;;;;;;;13.10;99.90;;;;;;5054997;28;20530;-89
2022/04/25 05:15:53;;;;;;;;;;;13.10;99.90;;;;;;5054763;28;19916;-90
2022/04/25 05:18:19;;;;;;;;;;;13.00;99.90;;;;;;5081886;28;19916;-90
2022/04/25 05:20:45;;;;;;;;;;;13.00;99.90;;;;;;5083216;28;19909;-94
2022/04/25 05:23:10;;;;;;;;;;;13.10;99.90;;;;;;5085385;28;19968;-90
2022/04/25 05:25:38;;;;;;;;;;;13.00;99.90;;;;;;5063341;28;19905;-90
2022/04/25 05:28:04;;;;;;;;;;;13.00;99.90;;;;;;5082715;28;19913;-90
2022/04/25 05:30:30;;;;;;;;;;;13.00;99.90;;;;;;5088452;28;20457;-90
2022/04/25 05:32:57;;;;;;;;;;;13.00;99.90;;;;;;5068953;28;19948;-89
2022/04/25 05:35:23;;;;;;;;;;;13.00;99.90;;;;;;5064733;28;20039;-89
2022/04/25 05:37:49;;;;;;;;;;;13.10;99.90;;;;;;5072897;28;19938;-90
2022/04/25 05:40:19;;;;;;;;;;;13.10;99.90;;;;;;5072747;28;20053;-90
2022/04/25 05:42:45;;;;;;;;;;;13.10;99.90;;;;;;5072310;28;20372;-89
2022/04/25 05:45:14;;;;;;;;;;;13.10;99.90;;;;;;5069751;28;20003;-89
2022/04/25 05:47:40;;;;;;;;;;;13.10;99.90;;;;;;5074569;28;19969;-90
2022/04/25 05:52:51;;;;;;;;;;;13.20;99.90;;;;;;5072441;28;20399;-90
2022/04/25 05:55:16;;;;;;;;;;;13.20;99.90;;;;;;5072313;28;19908;-89
2022/04/25 05:57:42;;;;;;;;;;;13.20;99.90;;;;;;5071461;28;20301;-90
2022/04/25 06:00:08;;;;;;;;;;;13.20;99.90;;;;;;5072689;28;19908;-89
2022/04/25 06:02:38;;;;;;;;;;;13.30;99.90;;;;;;5079360;28;19917;-89
2022/04/25 06:05:04;;;;;;;;;;;13.30;99.90;;;;;;5083436;28;20215;-89
2022/04/25 06:07:30;;;;;;;;;;;13.30;99.90;;;;;;5083838;28;19943;-89
2022/04/25 06:09:56;;;;;;;;;;;13.40;99.90;;;;;;5062976;28;20104;-89
2022/04/25 06:12:22;;;;;;;;;;;13.30;99.90;;;;;;5081332;28;20038;-89
2022/04/25 06:14:48;;;;;;;;;;;13.30;99.90;;;;;;5079053;28;19905;-89
2022/04/25 06:17:15;;;;;;;;;;;13.30;99.90;;;;;;5057050;28;19917;-89
2022/04/25 06:19:41;;;;;;;;;;;13.40;99.90;;;;;;5079308;28;19909;-89
2022/04/25 06:22:07;;;;;;;;;;;13.40;99.90;;;;;;5059962;28;19923;-89
2022/04/25 06:24:33;;;;;;;;;;;13.50;99.90;;;;;;5080625;28;19927;-89
2022/04/25 06:26:59;;;;;;;;;;;13.50;99.90;;;;;;5072357;28;19970;-88
2022/04/25 06:29:24;;;;;;;;;;;13.60;99.90;;;;;;5073796;28;19908;-89
2022/04/25 06:31:50;;;;;;;;;;;13.60;99.90;;;;;;5073055;28;19955;-89
2022/04/25 06:34:16;;;;;;;;;;;13.60;99.90;;;;;;5055440;28;19912;-89
2022/04/25 06:36:41;;;;;;;;;;;13.60;99.90;;;;;;5071657;28;19939;-88
2022/04/25 06:39:07;;;;;;;;;;;13.70;99.90;;;;;;5064441;28;19944;-89
2022/04/25 06:41:33;;;;;;;;;;;13.70;99.90;;;;;;5071708;28;19924;-89
2022/04/25 06:43:58;;;;;;;;;;;13.70;99.90;;;;;;5071805;28;19912;-89
2022/04/25 06:46:29;;;;;;;;;;;13.70;99.90;;;;;;5053710;28;19908;-89
2022/04/25 06:51:39;;;;;;;;;;;13.60;99.90;;;;;;5071882;28;20359;-89
2022/04/25 06:54:06;;;;;;;;;;;13.60;99.90;;;;;;5071438;28;20503;-89
2022/04/25 06:56:32;;;;;;;;;;;13.70;99.90;;;;;;5071314;28;20362;-89
2022/04/25 06:58:57;;;;;;;;;;;13.70;99.90;;;;;;5071394;28;19912;-89
2022/04/25 07:01:23;;;;;;;;;;;13.80;99.90;;;;;;5071441;28;19909;-89
2022/04/25 07:03:48;;;;;;;;;;;13.90;99.90;;;;;;5053123;28;20014;-86
2022/04/25 07:06:14;;;;;;;;;;;13.90;99.90;;;;;;5071359;28;19909;-86
2022/04/25 07:08:39;;;;;;;;;;;14.00;99.90;;;;;;5071415;28;20168;-86
2022/04/25 07:11:05;;;;;;;;;;;14.00;99.90;;;;;;5071306;28;20050;-86
2022/04/25 07:13:30;;;;;;;;;;;14.00;99.90;;;;;;5071062;28;19940;-87
2022/04/25 07:15:56;;;;;;;;;;;14.10;99.90;;;;;;5071130;28;19908;-86
2022/04/25 07:18:22;;;;;;;;;;;14.20;99.90;;;;;;5070680;28;19912;-86
2022/04/25 07:20:47;;;;;;;;;;;14.10;99.90;;;;;;5071058;28;19909;-86
2022/04/25 07:28:52;;;;;;;;;;;14.30;99.90;;;;;;5071220;28;19931;-88
2022/04/25 07:31:18;;;;;;;;;;;14.40;99.90;;;;;;5052902;28;19915;-89
2022/04/25 07:33:45;;;;;;;;;;;14.50;99.90;;;;;;5052324;28;19919;-89
2022/04/25 07:36:12;;;;;;;;;;;14.40;99.90;;;;;;5070505;28;19917;-89
2022/04/25 07:38:39;;;;;;;;;;;14.30;99.90;;;;;;5070860;28;20012;-89
2022/04/25 07:41:05;;;;;;;;;;;14.30;99.90;;;;;;5072028;28;19909;-89
2022/04/25 07:43:30;;;;;;;;;;;14.30;99.90;;;;;;5070538;28;19930;-89
2022/04/25 07:45:56;;;;;;;;;;;14.30;99.90;;;;;;5070647;28;19909;-89
2022/04/25 07:48:21;;;;;;;;;;;14.40;99.90;;;;;;5070194;28;19915;-89
2022/04/25 07:50:47;;;;;;;;;;;14.40;99.90;;;;;;5070434;28;19914;-89
2022/04/25 07:53:13;;;;;;;;;;;14.30;99.90;;;;;;5070469;28;20343;-86
2022/04/25 07:55:38;;;;;;;;;;;14.30;99.90;;;;;;5052442;28;19952;-86
2022/04/25 07:58:04;;;;;;;;;;;14.40;99.90;;;;;;5070200;28;19958;-87
2022/04/25 08:00:30;;;;;;;;;;;14.40;99.90;;;;;;5052321;28;20046;-86
2022/04/25 08:02:55;;;;;;;;;;;14.50;99.90;;;;;;5070381;28;19932;-87
2022/04/25 08:05:21;;;;;;;;;;;14.50;99.90;;;;;;5052410;28;19916;-87
2022/04/25 08:07:46;;;;;;;;;;;14.50;99.90;;;;;;5052308;28;20372;-87
2022/04/25 08:10:12;;;;;;;;;;;14.40;99.90;;;;;;5052241;28;19909;-86
2022/04/25 08:18:06;;;;;;;;;;;14.70;99.90;;;;;;5069569;28;20339;-90
2022/04/25 08:20:34;;;;;;;;;;;14.90;99.90;;;;;;5069961;28;19913;-89
2022/04/25 08:23:00;;;;;;;;;;;14.80;99.90;;;;;;5052037;28;19954;-86
2022/04/25 08:25:27;;;;;;;;;;;14.80;99.90;;;;;;5069212;28;19982;-87
2022/04/25 08:27:53;;;;;;;;;;;14.90;99.90;;;;;;5051930;28;19912;-89
2022/04/25 08:30:20;;;;;;;;;;;15.10;99.90;;;;;;5070596;28;19909;-89
2022/04/25 08:32:46;;;;;;;;;;;15.30;99.90;;;;;;5069559;28;19912;-89
2022/04/25 08:35:12;;;;;;;;;;;15.20;99.90;;;;;;5069889;28;19908;-89
2022/04/25 08:37:38;;;;;;;;;;;15.30;99.90;;;;;;5069874;28;20162;-89
2022/04/25 08:40:04;;;;;;;;;;;15.30;99.90;;;;;;5069821;28;20177;-89
2022/04/25 08:42:31;;;;;;;;;;;15.10;99.90;;;;;;5069661;28;20171;-89
2022/04/25 08:44:58;;;;;;;;;;;15.00;99.90;;;;;;5069889;28;19915;-89
2022/04/25 08:47:28;;;;;;;;;;;14.90;99.90;;;;;;5069560;28;19908;-89
2022/04/25 08:49:57;;;;;;;;;;;15.00;99.90;;;;;;5069915;28;19954;-89
2022/04/25 08:52:23;;;;;;;;;;;15.20;99.90;;;;;;5069766;28;19908;-89
2022/04/25 08:54:49;;;;;;;;;;;15.20;99.90;;;;;;5069989;28;19908;-89
2022/04/25 08:57:17;;;;;;;;;;;15.40;99.90;;;;;;5070063;28;19939;-89
2022/04/25 08:59:43;;;;;;;;;;;15.50;99.90;;;;;;5062020;28;20366;-89
2022/04/25 09:02:10;;;;;;;;;;;15.50;99.90;;;;;;5048449;28;19915;-89
2022/04/25 09:04:36;;;;;;;;;;;15.50;99.90;;;;;;5073105;28;19915;-89
2022/04/25 09:07:02;;;;;;;;;;;15.60;99.90;;;;;;5055809;28;19908;-89
2022/04/25 09:09:27;;;;;;;;;;;15.50;99.90;;;;;;5055482;28;20246;-89
2022/04/25 09:12:09;;;;;;;;;;;15.50;99.90;;;;;;5073899;28;20418;-89
2022/04/25 09:14:35;;;;;;;;;;;15.60;99.90;;;;;;5073367;28;19908;-89
2022/04/25 09:17:03;;;;;;;;;;;15.60;99.90;;;;;;5073731;28;19916;-89
2022/04/25 09:19:31;;;;;;;;;;;15.50;99.90;;;;;;5072904;28;19908;-90
2022/04/25 09:21:57;;;;;;;;;;;15.60;99.90;;;;;;5073156;28;19909;-89
2022/04/25 09:24:23;;;;;;;;;;;15.70;99.90;;;;;;5055192;28;20355;-89
2022/04/25 09:26:53;;;;;;;;;;;15.60;99.90;;;;;;5055185;28;19999;-90
2022/04/25 09:29:26;;;;;;;;;;;15.50;99.90;;;;;;5067030;28;19912;-89
2022/04/25 09:31:52;;;;;;;;;;;15.20;99.90;;;;;;5075339;28;19908;-89
2022/04/25 09:34:59;;;;;;;;;;;15.20;99.90;;;;;;5074619;28;19909;-90
2022/04/25 09:37:06;;;;;;;;;;;15.10;99.90;;;;;;5072683;28;19922;-89
2022/04/25 09:39:32;;;;;;;;;;;15.40;99.90;;;;;;5073019;28;19916;-89
2022/04/25 09:41:57;;;;;;;;;;;15.40;99.90;;;;;;5072962;28;19919;-89
2022/04/25 09:44:26;;;;;;;;;;;15.40;99.90;;;;;;5072829;28;19908;-89
2022/04/25 09:46:51;;;;;;;;;;;15.50;99.90;;;;;;5054843;28;20406;-90
2022/04/25 09:49:22;;;;;;;;;;;15.50;99.90;;;;;;5072362;28;19909;-89
2022/04/25 09:52:01;;;;;;;;;;;15.60;99.90;;;;;;5072764;28;19908;-87
2022/04/25 09:54:26;;;;;;;;;;;15.60;99.90;;;;;;5054691;28;19915;-87
2022/04/25 09:56:52;;;;;;;;;;;15.80;99.90;;;;;;5072697;28;20296;-86
2022/04/25 09:59:18;;;;;;;;;;;15.90;99.90;;;;;;5072640;28;19961;-87
2022/04/25 10:01:45;;;;;;;;;;;16.00;99.90;;;;;;5072528;28;19916;-87
2022/04/25 10:04:32;;;;;;;;;;;15.90;99.90;;;;;;5054350;28;20387;-87
2022/04/25 10:07:02;;;;;;;;;;;15.80;99.90;;;;;;5072574;28;19908;-87
2022/04/25 10:09:31;;;;;;;;;;;15.80;99.90;;;;;;5054253;28;19909;-87
2022/04/25 10:12:01;;;;;;;;;;;15.70;99.90;;;;;;5071690;28;19908;-87
2022/04/25 10:14:27;;;;;;;;;;;15.40;99.90;;;;;;5072365;28;19916;-88
2022/04/25 10:16:54;;;;;;;;;;;15.30;99.90;;;;;;5072575;28;19923;-87
2022/04/25 10:19:21;;;;;;;;;;;15.40;99.90;;;;;;5071974;28;20159;-87
2022/04/25 10:21:47;;;;;;;;;;;15.40;99.90;;;;;;5072097;28;19989;-87
2022/04/25 10:24:15;;;;;;;;;;;15.50;99.90;;;;;;5072151;28;20442;-87
2022/04/25 10:26:41;;;;;;;;;;;15.30;99.90;;;;;;5072509;28;19912;-87
2022/04/25 10:29:11;;;;;;;;;;;15.40;99.90;;;;;;5054317;28;19909;-88
2022/04/25 10:31:41;;;;;;;;;;;15.50;99.90;;;;;;5072453;28;20338;-88
2022/04/25 10:34:08;;;;;;;;;;;15.80;99.90;;;;;;5071183;28;19963;-87
2022/04/25 10:36:36;;;;;;;;;;;15.80;99.90;;;;;;5071867;28;19975;-88
2022/04/25 10:39:13;;;;;;;;;;;16.00;99.90;;;;;;5071612;28;19908;-88
2022/04/25 10:44:26;;;;;;;;;;;16.30;99.90;;;;;;5068056;28;20153;-87
2022/04/25 10:47:07;;;;;;;;;;;16.30;99.90;;;;;;5071789;28;20216;-89
2022/04/25 10:49:33;;;;;;;;;;;16.20;99.90;;;;;;5071263;28;20364;-88
2022/04/25 10:51:59;;;;;;;;;;;15.90;99.90;;;;;;5071748;28;19908;-87
2022/04/25 10:54:27;;;;;;;;;;;15.80;99.90;;;;;;5071654;28;19908;-87
2022/04/25 10:57:05;;;;;;;;;;;15.90;99.90;;;;;;5053413;28;19916;-88
2022/04/25 10:59:31;;;;;;;;;;;16.10;99.90;;;;;;5071355;28;19920;-88
2022/04/25 11:01:57;;;;;;;;;;;16.30;99.90;;;;;;5053539;28;20284;-88
2022/04/25 11:04:23;;;;;;;;;;;16.30;99.90;;;;;;5052983;28;19908;-88
2022/04/25 11:07:08;;;;;;;;;;;16.20;99.90;;;;;;5053010;28;19915;-87
2022/04/25 11:09:39;;;;;;;;;;;16.20;99.90;;;;;;5052861;28;19909;-88
2022/04/25 11:12:05;;;;;;;;;;;16.30;99.90;;;;;;5071377;28;19943;-87
2022/04/25 11:14:31;;;;;;;;;;;16.40;99.90;;;;;;5071085;28;19935;-87
2022/04/25 11:17:12;;;;;;;;;;;16.60;99.90;;;;;;5071038;28;19916;-87
2022/04/25 11:19:57;;;;;;;;;;;16.80;99.90;;;;;;5071092;28;19962;-88
2022/04/25 11:22:38;;;;;;;;;;;16.90;99.90;;;;;;5070964;28;19908;-88
2022/04/25 11:25:22;;;;;;;;;;;16.80;99.90;;;;;;5073213;28;19921;-87
2022/04/25 11:28:08;;;;;;;;;;;16.60;99.90;;;;;;5052875;28;19909;-87
2022/04/25 11:30:34;;;;;;;;;;;16.80;99.90;;;;;;5052695;28;20387;-87
2022/04/25 11:33:06;;;;;;;;;;;16.90;99.90;;;;;;5070546;28;19994;-88
2022/04/25 11:35:33;;;;;;;;;;;16.90;99.90;;;;;;5070809;28;20411;-88
2022/04/25 11:37:59;;;;;;;;;;;17.10;99.90;;;;;;5070784;28;19917;-87
2022/04/25 11:40:24;;;;;;;;;;;17.30;99.90;;;;;;5070980;28;19915;-88
2022/04/25 11:42:50;;;;;;;;;;;17.10;99.90;;;;;;5052431;28;19967;-88
2022/04/25 11:45:16;;;;;;;;;;;17.20;99.90;;;;;;5070941;28;19912;-87
2022/04/25 11:47:41;;;;;;;;;;;17.10;99.90;;;;;;5070048;28;20284;-87
2022/04/25 11:50:10;;;;;;;;;;;17.30;99.90;;;;;;5052490;28;19908;-87
2022/04/25 11:52:43;;;;;;;;;;;17.60;99.90;;;;;;5070361;28;20128;-87
2022/04/25 11:55:09;;;;;;;;;;;17.60;99.90;;;;;;5070541;28;20471;-88
2022/04/25 11:57:39;;;;;;;;;;;17.30;99.90;;;;;;5053202;28;19978;-88
2022/04/25 12:00:09;;;;;;;;;;;17.30;99.90;;;;;;5070489;28;19958;-88
2022/04/25 12:02:35;;;;;;;;;;;17.30;99.90;;;;;;5070406;28;19908;-87
2022/04/25 12:05:01;;;;;;;;;;;17.30;99.90;;;;;;5052452;28;19912;-88
2022/04/25 12:07:26;;;;;;;;;;;17.60;99.90;;;;;;5070181;28;19962;-87
2022/04/25 12:18:10;;;;;;;;;;;17.70;99.90;;;;;;5069812;28;19924;-88
2022/04/25 12:20:35;;;;;;;;;;;17.70;99.90;;;;;;5052195;28;20360;-87
2022/04/25 12:23:01;;;;;;;;;;;17.50;99.90;;;;;;5070439;28;19916;-87
2022/04/25 12:25:28;;;;;;;;;;;17.70;99.90;;;;;;5069958;28;19920;-87
2022/04/25 12:27:59;;;;;;;;;;;17.60;99.90;;;;;;5052079;28;19912;-88
2022/04/25 12:30:25;;;;;;;;;;;17.50;99.90;;;;;;5070243;28;20483;-88
2022/04/25 12:33:04;;;;;;;;;;;17.30;99.90;;;;;;5051740;28;20145;-87
2022/04/25 12:35:30;;;;;;;;;;;17.40;99.90;;;;;;5069189;28;19915;-87
2022/04/25 12:37:55;;;;;;;;;;;17.50;99.90;;;;;;5070079;28;19924;-88
2022/04/25 12:40:21;;;;;;;;;;;17.40;99.90;;;;;;5070028;28;19919;-87
2022/04/25 12:42:47;;;;;;;;;;;17.50;99.90;;;;;;5052084;28;19909;-87
2022/04/25 12:45:14;;;;;;;;;;;17.70;99.90;;;;;;5069966;28;19909;-88
2022/04/25 12:47:53;;;;;;;;;;;17.70;99.90;;;;;;5069316;28;19912;-87
2022/04/25 12:50:39;;;;;;;;;;;17.70;99.90;;;;;;5069676;28;19962;-87
2022/04/25 12:53:06;;;;;;;;;;;18.00;99.90;;;;;;5069866;28;19908;-88
2022/04/25 12:55:45;;;;;;;;;;;17.90;99.90;;;;;;5069839;28;20365;-87
2022/04/25 12:58:11;;;;;;;;;;;17.90;99.90;;;;;;5069663;28;19920;-88
2022/04/25 13:00:43;;;;;;;;;;;18.10;99.90;;;;;;5069809;28;19999;-88
2022/04/25 13:03:10;;;;;;;;;;;18.40;99.90;;;;;;5069696;28;19908;-88
2022/04/25 13:05:36;;;;;;;;;;;18.40;99.90;;;;;;5069744;28;19966;-88
2022/04/25 13:08:02;;;;;;;;;;;18.20;99.90;;;;;;5069898;28;20258;-88
2022/04/25 13:10:28;;;;;;;;;;;18.40;99.90;;;;;;5069767;28;19908;-88
2022/04/25 13:12:54;;;;;;;;;;;18.30;99.90;;;;;;5069696;28;19966;-87
2022/04/25 13:15:25;;;;;;;;;;;18.30;99.90;;;;;;5063653;28;19967;-87
2022/04/25 13:17:51;;;;;;;;;;;18.50;99.90;;;;;;5071198;28;20400;-88
2022/04/25 13:20:20;;;;;;;;;;;18.40;99.90;;;;;;5051655;28;19931;-88
2022/04/25 13:22:46;;;;;;;;;;;18.80;99.90;;;;;;5063323;28;20030;-87
2022/04/25 13:25:14;;;;;;;;;;;18.70;99.90;;;;;;5062950;28;20539;-88
2022/04/25 13:27:40;;;;;;;;;;;18.70;99.90;;;;;;5062959;28;19915;-88
2022/04/25 13:30:07;;;;;;;;;;;19.20;99.90;;;;;;5069636;28;19961;-88
2022/04/25 13:32:33;;;;;;;;;;;19.10;99.90;;;;;;5069341;28;20245;-88
2022/04/25 13:34:58;;;;;;;;;;;19.20;99.90;;;;;;5069492;28;19913;-88
2022/04/25 13:37:25;;;;;;;;;;;19.30;99.90;;;;;;5069163;28;19920;-87
2022/04/25 13:39:51;;;;;;;;;;;19.10;99.90;;;;;;5069482;28;19912;-88
2022/04/25 13:42:17;;;;;;;;;;;18.80;99.90;;;;;;5069334;28;19931;-88
2022/04/25 13:44:42;;;;;;;;;;;19.20;99.90;;;;;;5069304;28;19908;-88
2022/04/25 13:47:08;;;;;;;;;;;19.00;99.90;;;;;;5070287;28;19909;-88
2022/04/25 13:49:33;;;;;;;;;;;19.00;99.90;;;;;;5072933;28;20266;-88
2022/04/25 13:52:01;;;;;;;;;;;19.80;99.90;;;;;;5072612;28;19908;-88
2022/04/25 13:54:27;;;;;;;;;;;19.80;99.90;;;;;;5054555;28;19915;-88
2022/04/25 13:56:52;;;;;;;;;;;20.00;99.90;;;;;;5072599;28;19917;-88
2022/04/25 13:59:18;;;;;;;;;;;20.00;99.90;;;;;;5054868;28;20324;-88
2022/04/25 14:01:43;;;;;;;;;;;19.70;99.90;;;;;;5073144;28;20300;-87
2022/04/25 14:04:09;;;;;;;;;;;19.60;99.90;;;;;;5072408;28;20293;-88
2022/04/25 14:06:34;;;;;;;;;;;19.20;99.90;;;;;;5072670;28;19916;-88
2022/04/25 14:09:01;;;;;;;;;;;19.20;99.90;;;;;;5072597;28;20013;-88
2022/04/25 14:11:29;;;;;;;;;;;19.70;99.90;;;;;;5072639;28;19916;-88
2022/04/25 14:13:58;;;;;;;;;;;19.90;99.90;;;;;;5054179;28;19913;-88
2022/04/25 14:16:24;;;;;;;;;;;20.80;99.90;;;;;;5072245;28;19931;-87
2022/04/25 14:18:50;;;;;;;;;;;21.20;99.90;;;;;;5072326;28;20423;-88
2022/04/25 14:21:16;;;;;;;;;;;22.10;99.90;;;;;;5072303;28;20006;-88
2022/04/25 14:23:41;;;;;;;;;;;21.90;99.90;;;;;;5072203;28;19909;-88
2022/04/25 14:26:08;;;;;;;;;;;21.80;99.90;;;;;;5072224;28;20323;-88
2022/04/25 14:28:34;;;;;;;;;;;21.70;99.90;;;;;;5072209;28;20109;-88
2022/04/25 14:31:00;;;;;;;;;;;21.90;99.90;;;;;;5071927;28;20453;-88
2022/04/25 14:33:26;;;;;;;;;;;22.50;99.90;;;;;;5053686;28;19909;-88
2022/04/25 14:35:53;;;;;;;;;;;22.70;99.90;;;;;;5071914;28;20033;-88
2022/04/25 14:38:22;;;;;;;;;;;23.10;99.90;;;;;;5071745;28;19923;-87
2022/04/25 14:40:55;;;;;;;;;;;23.00;99.90;;;;;;5072173;28;19908;-88
2022/04/25 14:43:21;;;;;;;;;;;23.70;99.80;;;;;;5065893;28;20140;-88
2022/04/25 14:45:47;;;;;;;;;;;23.50;99.90;;;;;;5072039;28;20168;-88
2022/04/25 14:48:13;;;;;;;;;;;24.20;99.50;;;;;;5065228;28;19909;-89
2022/04/25 14:56:07;;;;;;;;;;;24.90;98.60;;;;;;5071478;28;19915;-88